Time;durP1;ratioP1;P1;durP2;ratioP2;P2;SDS_P1;SDS_P2;PMS_P1;PMS_P2;Temp;Humidity;BMP_temperature;BMP_pressure;BME280_temperature;BME280_humidity;BME280_pressure;Samples;Min_cycle;Max_cycle;Signal;HPM_P1;HPM_P2
2021/12/26 00:01:26;;;;;;;1.67;0.75;;;;;;;6.19;100.00;98451.09;4937228;29;20092;-54
2021/12/26 00:04:30;;;;;;;0.20;0.10;;;;;;;6.20;100.00;98453.34;4915240;29;20095;-54
2021/12/26 00:07:34;;;;;;;1.92;1.52;;;;;;;6.24;100.00;98455.94;4929039;29;20653;-54
2021/12/26 00:10:38;;;;;;;2.40;1.45;;;;;;;6.21;100.00;98448.59;4891484;29;20071;-54
2021/12/26 00:27:50;;;;;;;0.47;0.20;;;;;;;6.15;100.00;98459.56;6065346;22;2311231;-59
2021/12/26 00:30:54;;;;;;;0.30;0.30;;;;;;;6.17;100.00;98457.09;6161794;23;20032;-59
2021/12/26 00:33:57;;;;;;;0.25;0.25;;;;;;;6.13;100.00;98461.31;6161171;23;20032;-57
2021/12/26 00:37:01;;;;;;;0.20;0.20;;;;;;;6.16;100.00;98465.84;6161022;23;20102;-58
2021/12/26 00:40:07;;;;;;;0.35;0.35;;;;;;;6.13;100.00;98461.31;6161424;23;20036;-60
2021/12/26 00:43:11;;;;;;;0.35;0.35;;;;;;;6.15;100.00;98461.56;6160863;23;20051;-60
2021/12/26 00:58:27;;;;;;;0.80;0.50;;;;;;;6.06;100.00;98474.25;6169262;22;2060284;-60
2021/12/26 01:01:31;;;;;;;0.38;0.38;;;;;;;6.04;100.00;98476.72;6251555;22;20031;-59
2021/12/26 01:04:35;;;;;;;1.08;0.52;;;;;;;6.08;100.00;98482.06;6252120;22;20031;-59
2021/12/26 01:10:51;;;;;;;0.30;0.30;;;;;;;6.08;100.00;98482.06;6282244;22;20030;-59
2021/12/26 01:13:55;;;;;;;0.55;0.38;;;;;;;6.11;100.00;98468.06;6281721;22;20070;-59
2021/12/26 01:17:13;;;;;;;0.10;0.10;;;;;;;6.21;100.00;98473.47;6282085;22;20027;-59
2021/12/26 01:20:38;;;;;;;0.10;0.10;;;;;;;6.21;100.00;98468.72;6282566;22;20031;-59
2021/12/26 01:23:43;;;;;;;0.20;0.20;;;;;;;6.19;100.00;98473.19;6282329;22;20034;-59
2021/12/26 01:26:46;;;;;;;0.45;0.40;;;;;;;6.19;100.00;98475.97;6282269;22;20466;-59
2021/12/26 01:29:50;;;;;;;0.40;0.40;;;;;;;6.15;100.00;98475.41;6282252;22;20027;-59
2021/12/26 01:32:54;;;;;;;0.50;0.32;;;;;;;6.09;100.00;98473.31;6281665;22;20022;-59
2021/12/26 01:35:58;;;;;;;0.47;0.47;;;;;;;6.15;100.00;98469.88;6282255;22;20027;-59
2021/12/26 01:39:07;;;;;;;1.85;1.00;;;;;;;6.18;100.00;98463.38;6281936;22;20026;-60
2021/12/26 01:42:11;;;;;;;0.90;0.35;;;;;;;6.16;100.00;98466.63;6282462;22;20026;-59
2021/12/26 01:45:15;;;;;;;0.65;0.65;;;;;;;6.20;100.00;98452.59;6282315;22;20023;-59
2021/12/26 01:48:19;;;;;;;2.55;0.70;;;;;;;6.21;100.00;98451.38;6281430;22;20035;-57
2021/12/26 01:51:22;;;;;;;0.35;0.35;;;;;;;6.21;100.00;98443.06;6282713;22;20023;-58
2021/12/26 01:54:37;;;;;;;0.68;0.50;;;;;;;6.26;100.00;98447.94;6282183;22;20023;-57
2021/12/26 01:57:41;;;;;;;0.22;0.22;;;;;;;6.26;100.00;98450.69;6279379;22;20023;-52
2021/12/26 02:00:51;;;;;;;1.73;0.43;;;;;;;6.29;100.00;98452.47;6274868;22;20026;-51
2021/12/26 02:03:55;;;;;;;0.30;0.20;;;;;;;6.24;100.00;98450.41;6253827;22;20030;-51
2021/12/26 02:07:01;;;;;;;0.20;0.20;;;;;;;6.19;100.00;98453.84;6274186;22;20388;-51
2021/12/26 02:10:05;;;;;;;0.30;0.20;;;;;;;6.19;100.00;98445.56;6274884;22;20459;-52
2021/12/26 02:30:54;;;;;;;0.77;0.30;;;;;;;6.42;100.00;98450.91;6235029;22;1342694;-50
2021/12/26 02:33:58;;;;;;;0.17;0.17;;;;;;;6.38;100.00;98453.13;6242414;22;20502;-50
2021/12/26 02:37:02;;;;;;;0.43;0.43;;;;;;;6.38;100.00;98457.91;6251577;22;20031;-50
2021/12/26 02:40:06;;;;;;;0.20;0.20;;;;;;;6.34;100.00;98455.34;6251909;22;20035;-50
2021/12/26 02:43:12;;;;;;;0.40;0.35;;;;;;;6.32;100.00;98452.28;6244527;22;20031;-50
2021/12/26 02:46:16;;;;;;;0.63;0.52;;;;;;;6.26;100.00;98458.97;6251224;22;20026;-50
2021/12/26 02:49:25;;;;;;;0.60;0.40;;;;;;;6.28;100.00;98454.47;6251102;22;20031;-50
2021/12/26 02:52:29;;;;;;;0.10;0.10;;;;;;;6.25;100.00;98443.63;6251452;22;20031;-50
2021/12/26 02:55:34;;;;;;;0.98;0.55;;;;;;;6.29;100.00;98446.94;6251842;22;20023;-50
2021/12/26 02:58:37;;;;;;;0.60;0.52;;;;;;;6.30;100.00;98437.44;6252047;22;20067;-50
2021/12/26 03:01:41;;;;;;;0.25;0.25;;;;;;;6.28;100.00;98431.63;6251598;22;20043;-50
2021/12/26 03:04:44;;;;;;;0.30;0.30;;;;;;;6.33;100.00;98428.16;6250914;22;20063;-51
2021/12/26 03:07:48;;;;;;;0.57;0.25;;;;;;;6.36;100.00;98416.16;6239839;22;20039;-51
2021/12/26 03:10:52;;;;;;;0.25;0.25;;;;;;;6.35;100.00;98411.84;6241157;22;20027;-50
2021/12/26 03:13:56;;;;;;;0.10;0.10;;;;;;;6.29;100.00;98409.03;6240946;22;20019;-51
2021/12/26 03:17:01;;;;;;;0.40;0.40;;;;;;;6.29;100.00;98402.72;6242098;22;20483;-51
2021/12/26 03:30:52;;;;;;;1.05;0.70;;;;;;;6.34;100.00;98377.16;6223980;22;2101538;-55
2021/12/26 03:33:56;;;;;;;0.57;0.52;;;;;;;6.25;100.00;98375.28;6282495;22;20455;-56
2021/12/26 03:36:59;;;;;;;1.00;0.60;;;;;;;6.21;100.00;98371.22;6210225;22;20031;-55
2021/12/26 03:40:04;;;;;;;0.50;0.35;;;;;;;6.16;100.00;98380.16;6251751;22;20047;-55
2021/12/26 03:43:08;;;;;;;1.13;0.35;;;;;;;6.09;100.00;98379.34;6250873;22;20026;-55
2021/12/26 03:46:11;;;;;;;0.80;0.57;;;;;;;6.06;100.00;98377.53;6229835;23;20027;-54
2021/12/26 03:49:15;;;;;;;0.65;0.65;;;;;;;6.00;100.00;98373.94;6253932;22;20026;-55
2021/12/26 03:52:22;;;;;;;0.43;0.43;;;;;;;6.10;100.00;98375.34;6178205;22;20058;-56
2021/12/26 03:55:25;;;;;;;0.30;0.30;;;;;;;6.17;100.00;98376.19;6241910;22;20031;-56
2021/12/26 03:58:29;;;;;;;1.50;0.32;;;;;;;6.16;100.00;98369.88;6281898;22;20030;-56
2021/12/26 04:01:33;;;;;;;0.20;0.20;;;;;;;6.19;100.00;98379.22;6285151;22;20030;-56
2021/12/26 04:04:36;;;;;;;0.20;0.20;;;;;;;6.20;100.00;98366.91;6270731;22;20035;-56
2021/12/26 04:07:41;;;;;;;4.40;0.40;;;;;;;6.18;100.00;98364.63;6254344;22;20703;-56
2021/12/26 04:10:44;;;;;;;1.25;0.30;;;;;;;6.24;100.00;98367.50;6233268;22;20031;-56
2021/12/26 04:13:48;;;;;;;0.20;0.20;;;;;;;6.22;100.00;98364.41;6251772;22;20027;-56
2021/12/26 04:16:52;;;;;;;0.28;0.20;;;;;;;6.16;100.00;98369.13;6249108;22;20331;-56
2021/12/26 04:19:56;;;;;;;0.60;0.60;;;;;;;6.20;100.00;98361.38;6232760;22;20384;-57
2021/12/26 04:23:00;;;;;;;4.22;0.63;;;;;;;6.23;100.00;98360.44;6244674;22;20050;-56
2021/12/26 04:26:03;;;;;;;0.17;0.15;;;;;;;6.20;100.00;98361.38;6174911;23;20031;-57
2021/12/26 04:29:08;;;;;;;0.20;0.20;;;;;;;6.18;100.00;98364.63;6231383;22;20359;-57
2021/12/26 04:32:12;;;;;;;0.17;0.10;;;;;;;6.18;100.00;98359.09;6273714;22;20031;-57
2021/12/26 04:35:17;;;;;;;0.30;0.30;;;;;;;6.22;100.00;98358.91;6170157;23;20043;-57
2021/12/26 04:38:21;;;;;;;3.13;0.22;;;;;;;6.26;100.00;98365.00;6227016;23;20031;-57
2021/12/26 04:41:24;;;;;;;0.20;0.20;;;;;;;6.26;100.00;98348.41;6225019;22;20027;-57
2021/12/26 04:44:28;;;;;;;0.30;0.20;;;;;;;6.27;100.00;98349.91;6243926;23;20031;-57
2021/12/26 04:47:32;;;;;;;0.20;0.20;;;;;;;6.31;100.00;98339.41;6228413;22;20031;-58
2021/12/26 04:50:35;;;;;;;0.43;0.43;;;;;;;6.33;100.00;98336.94;6221787;22;20031;-57
2021/12/26 04:53:40;;;;;;;0.68;0.43;;;;;;;6.35;100.00;98340.72;6205448;22;20532;-57
2021/12/26 04:56:44;;;;;;;0.30;0.28;;;;;;;6.40;100.00;98344.81;6212830;22;20032;-58
2021/12/26 04:59:48;;;;;;;0.40;0.15;;;;;;;6.42;100.00;98336.78;6215202;22;20026;-57
2021/12/26 05:02:52;;;;;;;1.08;0.38;;;;;;;6.44;100.00;98342.59;6233915;22;20032;-58
2021/12/26 05:05:56;;;;;;;0.10;0.10;;;;;;;6.45;100.00;98344.13;6211066;22;20027;-58
2021/12/26 05:08:59;;;;;;;2.05;1.08;;;;;;;6.45;100.00;98349.66;6244933;22;20419;-58
2021/12/26 05:12:03;;;;;;;0.20;0.20;;;;;;;6.45;100.00;98344.13;6243819;22;20042;-58
2021/12/26 05:15:09;;;;;;;1.75;0.40;;;;;;;6.41;100.00;98335.28;6176710;22;20355;-58
2021/12/26 05:18:12;;;;;;;0.38;0.38;;;;;;;6.32;100.00;98336.19;6197490;22;20034;-58
2021/12/26 05:21:16;;;;;;;1.38;0.82;;;;;;;6.35;100.00;98339.97;6239674;22;20027;-58
2021/12/26 05:24:19;;;;;;;0.80;0.30;;;;;;;6.40;100.00;98347.56;6221993;22;20026;-57
2021/12/26 05:27:23;;;;;;;2.60;0.60;;;;;;;6.44;100.00;98342.59;6254094;22;20026;-57
2021/12/26 05:30:27;;;;;;;0.35;0.28;;;;;;;6.43;100.00;98347.34;6303596;22;20026;-57
2021/12/26 05:33:31;;;;;;;1.27;0.85;;;;;;;6.44;100.00;98348.13;6290241;22;20355;-57
2021/12/26 05:36:35;;;;;;;1.27;0.50;;;;;;;6.38;100.00;98350.06;6235102;22;20030;-57
2021/12/26 05:39:39;;;;;;;1.48;0.82;;;;;;;6.39;100.00;98346.06;6293011;22;20030;-57
2021/12/26 05:42:43;;;;;;;0.65;0.60;;;;;;;6.26;100.00;98348.41;6279537;22;20031;-57
2021/12/26 05:45:47;;;;;;;0.90;0.65;;;;;;;6.27;100.00;98349.91;6248342;22;20034;-58
2021/12/26 05:48:50;;;;;;;0.28;0.28;;;;;;;6.36;100.00;98341.50;6305185;22;20027;-58
2021/12/26 05:51:53;;;;;;;0.63;0.55;;;;;;;6.32;100.00;98335.41;6288017;22;20070;-58
2021/12/26 05:54:58;;;;;;;0.38;0.38;;;;;;;6.32;100.00;98338.94;6291807;22;20074;-58
2021/12/26 05:58:01;;;;;;;3.30;1.23;;;;;;;6.31;100.00;98328.34;6232209;22;20030;-58
2021/12/26 06:01:05;;;;;;;1.13;1.00;;;;;;;6.33;100.00;98331.41;6259149;22;20030;-57
2021/12/26 06:04:08;;;;;;;1.65;0.40;;;;;;;6.39;100.00;98323.94;6246844;22;20356;-58
2021/12/26 06:07:13;;;;;;;1.15;0.75;;;;;;;6.48;100.00;98321.03;6108952;23;20028;-58
2021/12/26 06:10:17;;;;;;;2.13;0.43;;;;;;;6.52;100.00;98313.31;6102390;23;20040;-57
2021/12/26 06:13:21;;;;;;;1.27;0.85;;;;;;;6.57;100.00;98318.13;6177027;23;20032;-56
2021/12/26 06:16:24;;;;;;;2.35;0.45;;;;;;;6.59;100.00;98310.84;6162783;23;20065;-58
2021/12/26 06:19:27;;;;;;;1.02;0.40;;;;;;;6.59;100.00;98301.78;6052305;23;20356;-57
2021/12/26 06:22:31;;;;;;;2.58;0.52;;;;;;;6.59;100.00;98299.03;6164721;23;20028;-57
2021/12/26 06:25:35;;;;;;;3.13;1.00;;;;;;;6.52;100.00;98302.97;6161403;23;20064;-58
2021/12/26 06:28:38;;;;;;;0.95;0.60;;;;;;;6.55;100.00;98306.78;6166449;23;20032;-58
2021/12/26 06:31:42;;;;;;;0.10;0.10;;;;;;;6.57;100.00;98305.06;6137467;23;20028;-57
2021/12/26 06:34:46;;;;;;;0.85;0.55;;;;;;;6.60;100.00;98306.09;6152305;23;20059;-58
2021/12/26 06:37:49;;;;;;;1.80;1.20;;;;;;;6.59;100.00;98315.63;6123453;23;20024;-57
2021/12/26 06:40:52;;;;;;;1.80;0.63;;;;;;;6.54;100.00;98308.78;6197418;23;20480;-57
2021/12/26 06:43:56;;;;;;;2.35;0.55;;;;;;;6.65;100.00;98310.91;6199755;23;20023;-57
2021/12/26 06:47:00;;;;;;;1.23;0.40;;;;;;;6.69;100.00;98314.25;6197590;23;20027;-57
2021/12/26 06:50:05;;;;;;;3.80;0.30;;;;;;;6.69;100.00;98309.44;6224636;22;20066;-58
2021/12/26 06:53:08;;;;;;;4.75;0.60;;;;;;;6.68;100.00;98316.25;6225722;23;20031;-57
2021/12/26 06:56:12;;;;;;;2.35;0.80;;;;;;;6.71;100.00;98312.50;6207113;23;20368;-57
2021/12/26 06:59:15;;;;;;;1.95;0.88;;;;;;;6.68;100.00;98307.19;6155257;23;20472;-57
2021/12/26 07:02:19;;;;;;;0.43;0.30;;;;;;;6.66;100.00;98306.91;6238135;23;20030;-57
2021/12/26 07:05:23;;;;;;;0.88;0.43;;;;;;;6.66;100.00;98309.69;6213895;23;20031;-57
2021/12/26 07:08:26;;;;;;;1.38;1.23;;;;;;;6.74;100.00;98310.75;6331832;22;20030;-57
2021/12/26 07:11:30;;;;;;;6.47;1.10;;;;;;;6.77;100.00;98309.78;6316938;22;20026;-57
2021/12/26 07:14:33;;;;;;;2.00;0.77;;;;;;;6.85;100.00;98310.88;6335099;22;20026;-57
2021/12/26 07:17:39;;;;;;;2.35;0.50;;;;;;;6.91;100.00;98305.41;6334710;22;20033;-57
2021/12/26 07:20:42;;;;;;;2.28;0.90;;;;;;;6.93;100.00;98311.22;6318368;22;20092;-57
2021/12/26 07:23:46;;;;;;;0.10;0.10;;;;;;;6.88;100.00;98309.91;6278785;22;20026;-57
2021/12/26 07:26:49;;;;;;;0.50;0.50;;;;;;;6.90;100.00;98312.94;6290318;22;20030;-57
2021/12/26 07:29:52;;;;;;;0.10;0.10;;;;;;;6.95;100.00;98309.50;6316922;22;20074;-57
2021/12/26 07:32:55;;;;;;;0.10;0.10;;;;;;;6.95;100.00;98309.50;6333803;22;20018;-57
2021/12/26 07:35:59;;;;;;;1.80;1.13;;;;;;;6.97;100.00;98300.69;6264476;22;20067;-57
2021/12/26 07:39:03;;;;;;;0.30;0.20;;;;;;;6.99;100.00;98304.50;6222284;23;20027;-57
2021/12/26 07:42:07;;;;;;;2.53;0.80;;;;;;;7.01;100.00;98307.53;6171249;23;20520;-57
2021/12/26 07:45:11;;;;;;;2.63;0.75;;;;;;;7.02;100.00;98308.28;6129388;23;20031;-57
2021/12/26 07:48:15;;;;;;;0.50;0.35;;;;;;;7.04;100.00;98311.34;6122827;23;20032;-57
2021/12/26 07:51:20;;;;;;;0.50;0.38;;;;;;;7.03;100.00;98309.78;6137432;23;20036;-57
2021/12/26 07:54:24;;;;;;;2.83;0.40;;;;;;;7.02;100.00;98309.03;6156339;23;20076;-57
2021/12/26 07:57:28;;;;;;;0.75;0.40;;;;;;;7.01;100.00;98312.28;6131635;23;20374;-57
2021/12/26 08:00:33;;;;;;;0.77;0.47;;;;;;;6.99;100.00;98312.78;6147681;23;20032;-57
2021/12/26 08:03:37;;;;;;;1.23;0.57;;;;;;;7.01;100.00;98310.28;6133004;23;20029;-58
2021/12/26 08:06:40;;;;;;;0.43;0.43;;;;;;;6.93;100.00;98323.03;6150694;23;20040;-57
2021/12/26 08:09:44;;;;;;;0.57;0.57;;;;;;;6.83;100.00;98324.44;6103895;23;20605;-57
2021/12/26 08:12:48;;;;;;;1.30;0.68;;;;;;;7.01;100.00;98329.66;6121382;23;20037;-58
2021/12/26 08:15:51;;;;;;;1.83;0.82;;;;;;;7.06;100.00;98331.72;6113731;23;20028;-58
2021/12/26 08:18:55;;;;;;;0.57;0.43;;;;;;;7.12;100.00;98329.00;6102532;23;20536;-58
2021/12/26 08:21:58;;;;;;;1.75;0.63;;;;;;;7.16;100.00;98322.00;6036156;23;20029;-58
2021/12/26 08:25:04;;;;;;;0.50;0.50;;;;;;;7.17;100.00;98326.28;6120048;23;20490;-58
2021/12/26 08:28:07;;;;;;;4.93;0.73;;;;;;;7.19;100.00;98325.81;6097637;23;20027;-58
2021/12/26 08:31:11;;;;;;;0.60;0.60;;;;;;;7.19;100.00;98329.31;6195868;23;20063;-58
2021/12/26 08:34:19;;;;;;;0.52;0.50;;;;;;;7.18;100.00;98333.34;6237190;22;20081;-58
2021/12/26 08:37:23;;;;;;;0.68;0.38;;;;;;;7.13;100.00;98336.81;6182838;23;20378;-58
2021/12/26 08:40:26;;;;;;;0.35;0.35;;;;;;;7.16;100.00;98335.84;6212627;23;20032;-57
2021/12/26 08:43:30;;;;;;;0.30;0.30;;;;;;;7.13;100.00;98336.81;6211288;23;20031;-57
2021/12/26 08:46:33;;;;;;;3.30;1.17;;;;;;;7.15;100.00;98342.63;6212085;23;20032;-58
2021/12/26 08:49:37;;;;;;;0.17;0.17;;;;;;;7.14;100.00;98343.13;6154518;23;20024;-57
2021/12/26 08:52:41;;;;;;;1.15;0.70;;;;;;;7.16;100.00;98346.94;6126281;23;20501;-57
2021/12/26 08:55:44;;;;;;;1.75;0.25;;;;;;;7.19;100.00;98354.22;6168357;23;20457;-58
2021/12/26 08:58:48;;;;;;;0.38;0.30;;;;;;;7.20;100.00;98358.53;6127783;23;20048;-58
2021/12/26 09:01:51;;;;;;;1.48;0.70;;;;;;;7.22;100.00;98344.97;6129552;23;20048;-58
2021/12/26 09:04:54;;;;;;;0.75;0.60;;;;;;;7.19;100.00;98357.00;6109425;23;20028;-57
2021/12/26 09:07:58;;;;;;;1.60;0.90;;;;;;;7.21;100.00;98354.50;6116613;23;20558;-58
2021/12/26 09:11:03;;;;;;;0.40;0.10;;;;;;;7.23;100.00;98360.34;6208959;23;20027;-58
2021/12/26 09:14:07;;;;;;;1.85;0.40;;;;;;;7.24;100.00;98364.59;6142744;23;20348;-57
2021/12/26 09:17:10;;;;;;;0.50;0.50;;;;;;;7.15;100.00;98358.47;6321596;22;20045;-57
2021/12/26 09:20:18;;;;;;;5.88;0.63;;;;;;;7.06;100.00;98364.94;6273897;22;20034;-57
2021/12/26 09:23:22;;;;;;;1.23;0.98;;;;;;;7.15;100.00;98366.78;6285503;22;20026;-57
2021/12/26 09:26:26;;;;;;;1.23;0.68;;;;;;;7.24;100.00;98358.31;6301163;22;20109;-58
2021/12/26 09:29:29;;;;;;;2.15;0.98;;;;;;;7.28;100.00;98358.84;6335148;22;20031;-57
2021/12/26 09:32:34;;;;;;;0.47;0.38;;;;;;;7.29;100.00;98361.16;6272378;22;20025;-58
2021/12/26 09:35:37;;;;;;;1.45;0.47;;;;;;;7.38;100.00;98358.22;6336293;22;20029;-57
2021/12/26 09:38:41;;;;;;;1.65;0.65;;;;;;;7.40;100.00;98360.47;6314025;22;20473;-58
2021/12/26 09:41:44;;;;;;;2.85;0.77;;;;;;;7.39;100.00;98367.25;6336303;22;20038;-58
2021/12/26 09:44:47;;;;;;;4.28;0.75;;;;;;;7.38;100.00;98369.28;6336052;22;20025;-57
2021/12/26 09:47:51;;;;;;;4.30;0.60;;;;;;;7.36;100.00;98365.47;6336603;22;20030;-58
2021/12/26 09:50:55;;;;;;;0.73;0.55;;;;;;;7.41;100.00;98359.22;6300387;22;20335;-58
2021/12/26 09:53:58;;;;;;;0.68;0.63;;;;;;;7.38;100.00;98360.97;6310111;22;20334;-58
2021/12/26 09:57:02;;;;;;;6.45;0.80;;;;;;;7.39;100.00;98358.94;6298650;22;20469;-58
2021/12/26 10:00:28;;;;;;;5.32;1.60;;;;;;;7.42;100.00;98358.75;6228233;23;20035;-57
2021/12/26 10:03:35;;;;;;;2.00;0.85;;;;;;;7.44;100.00;98361.00;6172266;23;20032;-57
2021/12/26 10:06:38;;;;;;;7.18;0.95;;;;;;;7.43;100.00;98356.72;6161799;23;20047;-57
2021/12/26 10:09:45;;;;;;;1.83;1.13;;;;;;;7.35;100.00;98350.88;6221654;23;20027;-57
2021/12/26 10:12:48;;;;;;;0.43;0.25;;;;;;;7.36;100.00;98365.47;6208459;23;20353;-57
2021/12/26 10:15:52;;;;;;;0.70;0.63;;;;;;;7.36;100.00;98366.22;6167620;23;20032;-57
2021/12/26 10:18:58;;;;;;;2.53;1.10;;;;;;;7.36;100.00;98354.41;6170801;23;20031;-57
2021/12/26 10:22:03;;;;;;;0.47;0.47;;;;;;;7.37;100.00;98362.22;6205394;23;20681;-57
2021/12/26 10:25:12;;;;;;;1.27;0.52;;;;;;;7.39;100.00;98356.94;6163887;23;20404;-57
2021/12/26 10:28:16;;;;;;;2.38;0.80;;;;;;;7.48;100.00;98353.25;6170514;23;20035;-57
2021/12/26 10:31:19;;;;;;;1.20;0.40;;;;;;;7.46;100.00;98347.44;6178162;22;20042;-56
2021/12/26 10:34:30;;;;;;;4.15;1.33;;;;;;;7.36;100.00;98354.41;6271044;22;20503;-56
2021/12/26 10:37:45;;;;;;;0.68;0.68;;;;;;;7.32;100.00;98342.78;6254360;22;20027;-57
2021/12/26 10:40:49;;;;;;;4.38;0.75;;;;;;;7.38;100.00;98347.13;6256131;22;20026;-57
2021/12/26 10:43:52;;;;;;;7.82;0.98;;;;;;;7.45;100.00;98346.66;6267162;22;20074;-57
2021/12/26 10:47:05;;;;;;;2.25;0.57;;;;;;;7.50;100.00;98345.19;6270228;22;20026;-57
2021/12/26 10:50:14;;;;;;;2.03;0.38;;;;;;;7.51;100.00;98332.88;6295452;22;20477;-57
2021/12/26 10:53:18;;;;;;;0.28;0.28;;;;;;;7.53;100.00;98330.38;6294709;22;20030;-56
2021/12/26 10:56:21;;;;;;;2.08;0.77;;;;;;;7.62;100.00;98332.97;6255433;22;20363;-57
2021/12/26 10:59:25;;;;;;;1.52;0.98;;;;;;;7.60;100.00;98325.13;6204413;22;20030;-56
2021/12/26 11:02:30;;;;;;;1.20;0.47;;;;;;;7.72;100.00;98319.66;6254480;22;20356;-57
2021/12/26 11:05:43;;;;;;;2.28;0.88;;;;;;;7.73;100.00;98330.28;6197421;22;20027;-56
2021/12/26 11:08:48;;;;;;;0.95;0.73;;;;;;;7.82;100.00;98326.56;6201070;22;20113;-56
2021/12/26 11:11:59;;;;;;;1.95;0.57;;;;;;;7.84;100.00;98321.28;6258176;22;20027;-56
2021/12/26 11:15:04;;;;;;;1.13;0.85;;;;;;;7.83;100.00;98312.19;6217176;22;20344;-56
2021/12/26 11:18:09;;;;;;;0.88;0.20;;;;;;;7.92;100.00;98314.78;6219668;22;20027;-57
2021/12/26 11:21:14;;;;;;;8.27;0.93;;;;;;;7.91;100.00;98312.50;6230016;22;20031;-56
2021/12/26 11:24:18;;;;;;;1.65;0.68;;;;;;;7.94;100.00;98311.50;6323534;22;20030;-56
2021/12/26 11:27:21;;;;;;;0.63;0.45;;;;;;;7.97;100.00;98313.31;6264146;22;20022;-56
2021/12/26 11:30:25;;;;;;;2.47;0.65;;;;;;;7.98;100.00;98312.03;6288538;22;20066;-56
2021/12/26 11:33:29;;;;;;;0.50;0.50;;;;;;;7.97;100.00;98308.50;6292155;22;20022;-56
2021/12/26 11:36:33;;;;;;;4.22;1.25;;;;;;;7.96;100.00;98303.47;6307390;22;20029;-56
2021/12/26 11:39:38;;;;;;;1.52;0.50;;;;;;;7.96;100.00;98312.53;6294348;22;20398;-56
2021/12/26 11:43:18;;;;;;;0.20;0.20;;;;;;;7.94;100.00;98303.19;6332074;22;20355;-57
2021/12/26 11:46:59;;;;;;;6.05;1.10;;;;;;;8.00;100.00;98306.75;6287942;22;20339;-56
2021/12/26 11:50:25;;;;;;;5.18;0.47;;;;;;;7.99;100.00;98299.69;6206427;22;20022;-56
2021/12/26 11:54:16;;;;;;;1.33;1.08;;;;;;;7.99;100.00;98297.66;6301357;22;20029;-56
2021/12/26 11:57:53;;;;;;;0.63;0.63;;;;;;;7.99;100.00;98296.94;6285681;22;20324;-57
2021/12/26 12:01:00;;;;;;;1.05;0.38;;;;;;;7.99;100.00;98288.63;6285517;22;20030;-56
2021/12/26 12:04:17;;;;;;;1.23;0.82;;;;;;;8.02;100.00;98282.81;6283878;22;20030;-56
2021/12/26 12:07:21;;;;;;;0.30;0.20;;;;;;;8.05;100.00;98287.38;6321696;22;20029;-56
2021/12/26 12:10:55;;;;;;;4.95;1.33;;;;;;;8.08;100.00;98286.38;6341827;22;20022;-56
2021/12/26 12:13:58;;;;;;;1.88;0.77;;;;;;;8.15;100.00;98279.59;6259728;22;20026;-56
2021/12/26 12:17:29;;;;;;;2.38;0.93;;;;;;;8.15;100.00;98285.16;6280986;22;20025;-56
2021/12/26 12:20:32;;;;;;;0.70;0.70;;;;;;;8.24;100.00;98277.41;6335862;22;20018;-56
2021/12/26 12:23:40;;;;;;;6.63;1.35;;;;;;;8.31;100.00;98282.50;6313948;22;20022;-56
2021/12/26 12:26:56;;;;;;;1.25;0.50;;;;;;;8.36;100.00;98267.88;6307902;22;20026;-56
2021/12/26 12:29:59;;;;;;;3.30;1.05;;;;;;;8.43;100.00;98280.50;6296501;22;20464;-56
2021/12/26 12:33:14;;;;;;;0.60;0.60;;;;;;;8.46;100.00;98273.22;6318524;22;20026;-56
2021/12/26 12:36:27;;;;;;;0.30;0.25;;;;;;;8.51;100.00;98269.72;6303790;22;20538;-56
2021/12/26 12:39:31;;;;;;;0.68;0.38;;;;;;;8.50;100.00;98263.38;6317475;22;20461;-55
2021/12/26 12:42:36;;;;;;;1.10;0.47;;;;;;;8.49;100.00;98264.63;6317263;22;20034;-55
2021/12/26 12:45:52;;;;;;;0.98;0.60;;;;;;;8.53;100.00;98267.94;6257104;22;20027;-55
2021/12/26 12:49:07;;;;;;;0.65;0.40;;;;;;;8.54;100.00;98260.38;6196762;23;20073;-55
2021/12/26 12:52:50;;;;;;;0.50;0.30;;;;;;;8.61;100.00;98260.66;6227275;23;20030;-56
2021/12/26 12:55:53;;;;;;;1.05;0.85;;;;;;;8.63;100.00;98251.81;6179092;23;20036;-55
2021/12/26 12:59:16;;;;;;;3.60;1.15;;;;;;;8.62;100.00;98248.28;6228736;23;20031;-55
2021/12/26 13:02:34;;;;;;;0.20;0.20;;;;;;;8.66;100.00;98245.28;6150837;23;20028;-55
2021/12/26 13:05:37;;;;;;;0.55;0.30;;;;;;;8.73;100.00;98244.75;6163424;23;20029;-56
2021/12/26 13:08:40;;;;;;;2.08;0.40;;;;;;;8.70;100.00;98245.78;6162222;23;20036;-55
2021/12/26 13:11:44;;;;;;;2.65;1.48;;;;;;;8.68;100.00;98248.31;6151617;23;20024;-57
2021/12/26 13:14:51;;;;;;;1.88;0.75;;;;;;;8.70;100.00;98246.53;6134065;23;20033;-54
2021/12/26 13:17:54;;;;;;;0.52;0.52;;;;;;;8.78;100.00;98241.25;6145415;23;20374;-55
2021/12/26 13:21:05;;;;;;;1.42;0.45;;;;;;;8.74;100.00;98235.94;6169108;22;20027;-54
2021/12/26 13:24:08;;;;;;;3.35;0.73;;;;;;;8.74;100.00;98235.19;6224431;22;20031;-54
2021/12/26 13:27:21;;;;;;;4.78;0.32;;;;;;;8.74;100.00;98230.41;6297761;22;20055;-56
2021/12/26 13:30:27;;;;;;;0.13;0.10;;;;;;;8.79;100.00;98232.41;6265333;22;20022;-53
2021/12/26 13:33:34;;;;;;;5.20;0.90;;;;;;;8.77;100.00;98232.16;6229646;22;20035;-56
2021/12/26 13:36:38;;;;;;;4.88;1.13;;;;;;;8.73;100.00;98234.44;6317612;22;20026;-56
2021/12/26 13:39:41;;;;;;;2.88;1.70;;;;;;;8.69;100.00;98228.38;6336005;22;20030;-54
2021/12/26 13:42:50;;;;;;;7.90;0.82;;;;;;;8.68;100.00;98232.41;6280164;22;20030;-56
2021/12/26 13:45:55;;;;;;;0.70;0.60;;;;;;;8.72;100.00;98234.94;6318763;22;20033;-55
2021/12/26 13:48:59;;;;;;;0.57;0.57;;;;;;;8.74;100.00;98224.84;6321804;22;20022;-56
2021/12/26 13:52:02;;;;;;;1.75;0.88;;;;;;;8.79;100.00;98220.56;6336139;22;20030;-56
2021/12/26 13:55:07;;;;;;;6.55;0.77;;;;;;;8.75;100.00;98223.56;6251743;22;20023;-55
2021/12/26 13:58:13;;;;;;;8.77;0.98;;;;;;;8.73;100.00;98223.31;6284623;22;20062;-55
2021/12/26 14:01:17;;;;;;;2.55;1.33;;;;;;;8.72;100.00;98213.50;6239175;22;20034;-54
2021/12/26 14:04:24;;;;;;;1.55;0.43;;;;;;;8.71;100.00;98219.53;6254416;22;20324;-55
2021/12/26 14:07:31;;;;;;;0.93;0.30;;;;;;;8.68;100.00;98221.31;6246276;22;20027;-55
2021/12/26 14:10:35;;;;;;;1.80;0.70;;;;;;;8.59;100.00;98218.78;6281837;22;20026;-56
2021/12/26 14:13:49;;;;;;;1.58;1.05;;;;;;;8.55;100.00;98221.03;6257415;22;20032;-54
2021/12/26 14:16:52;;;;;;;2.15;0.88;;;;;;;8.54;100.00;98218.75;6217639;22;20357;-55
2021/12/26 14:19:58;;;;;;;4.30;1.00;;;;;;;8.57;100.00;98215.75;6260080;22;20026;-55
2021/12/26 14:23:14;;;;;;;3.60;0.57;;;;;;;8.57;100.00;98220.53;6246578;22;20034;-56
2021/12/26 14:26:19;;;;;;;5.10;1.35;;;;;;;8.53;100.00;98218.00;6279206;22;20025;-54
2021/12/26 14:29:24;;;;;;;1.85;1.10;;;;;;;8.57;100.00;98210.19;6337643;22;20029;-54
2021/12/26 14:32:28;;;;;;;2.25;1.08;;;;;;;8.52;100.00;98207.41;6302544;22;20022;-54
2021/12/26 14:35:31;;;;;;;1.65;0.85;;;;;;;8.48;100.00;98212.44;6270516;22;20483;-50
2021/12/26 14:38:36;;;;;;;2.53;1.20;;;;;;;8.45;100.00;98197.53;6252896;22;20038;-49
2021/12/26 14:41:49;;;;;;;1.65;1.20;;;;;;;8.56;100.00;98197.56;6218500;22;20503;-49
2021/12/26 14:45:00;;;;;;;0.55;0.55;;;;;;;8.59;100.00;98196.56;6189644;22;20499;-51
2021/12/26 14:48:04;;;;;;;1.55;0.68;;;;;;;8.62;100.00;98195.56;6233743;22;20023;-50
2021/12/26 14:51:14;;;;;;;2.63;1.33;;;;;;;8.66;100.00;98193.31;6216055;22;20031;-53
2021/12/26 14:54:18;;;;;;;6.53;1.05;;;;;;;8.72;100.00;98191.28;6195569;23;20031;-52
2021/12/26 14:57:34;;;;;;;10.95;1.58;;;;;;;8.72;100.00;98188.53;6196338;23;20031;-51
2021/12/26 15:00:45;;;;;;;1.92;0.55;;;;;;;8.71;100.00;98197.34;6209143;23;20084;-51
2021/12/26 15:03:48;;;;;;;0.73;0.60;;;;;;;8.69;100.00;98199.84;6139806;23;20032;-51
2021/12/26 15:06:53;;;;;;;1.63;1.40;;;;;;;8.71;100.00;98202.88;6219680;23;20035;-51
2021/12/26 15:10:00;;;;;;;1.13;0.40;;;;;;;8.69;100.00;98192.28;6165649;23;20330;-53
2021/12/26 15:13:11;;;;;;;1.73;1.05;;;;;;;8.70;100.00;98190.28;6181066;23;20361;-51
2021/12/26 15:16:26;;;;;;;1.90;1.33;;;;;;;8.75;100.00;98187.50;6168004;23;20064;-51
2021/12/26 15:19:49;;;;;;;4.40;1.63;;;;;;;8.84;100.00;98198.34;6131467;23;20556;-51
2021/12/26 15:23:05;;;;;;;2.47;1.35;;;;;;;8.81;100.00;98191.06;6127187;23;20072;-51
2021/12/26 15:26:19;;;;;;;2.55;1.05;;;;;;;8.95;100.00;98184.47;6208639;22;20043;-51
2021/12/26 15:29:26;;;;;;;0.68;0.68;;;;;;;8.96;100.00;98193.56;6252122;22;20042;-51
2021/12/26 15:32:35;;;;;;;0.95;0.45;;;;;;;8.96;100.00;98182.47;6266870;22;20031;-57
2021/12/26 15:35:46;;;;;;;0.82;0.68;;;;;;;9.03;100.00;98179.94;6199522;22;20027;-51